Time;durP1;ratioP1;P1;durP2;ratioP2;P2;SDS_P1;SDS_P2;PMS_P1;PMS_P2;Temp;Humidity;BMP_temperature;BMP_pressure;BME280_temperature;BME280_humidity;BME280_pressure;Samples;Min_cycle;Max_cycle;Signal;HPM_P1;HPM_P2
2022/05/17 00:00:50;;;;;;;1.35;1.02;;;;;;;9.86;62.47;98660.47;6242767;23;20511;-79
2022/05/17 00:03:17;;;;;;;1.25;1.05;;;;;;;9.97;62.18;98672.34;6215185;23;20066;-78
2022/05/17 00:05:44;;;;;;;1.00;0.90;;;;;;;9.86;62.81;98652.66;6242623;23;20020;-79
2022/05/17 00:08:11;;;;;;;0.95;0.85;;;;;;;9.95;62.46;98662.84;6216344;23;20058;-78
2022/05/17 00:10:37;;;;;;;2.30;1.00;;;;;;;9.97;62.58;98664.56;6216565;23;20020;-81
2022/05/17 00:13:03;;;;;;;0.98;0.90;;;;;;;9.93;62.41;98651.63;6190691;23;20117;-78
2022/05/17 00:15:30;;;;;;;1.05;0.90;;;;;;;9.82;62.38;98640.63;6244016;23;20016;-79
2022/05/17 00:17:57;;;;;;;1.70;1.08;;;;;;;9.94;62.72;98660.28;6243021;23;20023;-80
2022/05/17 00:20:24;;;;;;;1.10;0.90;;;;;;;9.84;62.96;98636.25;6246446;23;20032;-79
2022/05/17 00:22:51;;;;;;;1.35;0.90;;;;;;;9.82;62.94;98635.44;6244635;23;20480;-79
2022/05/17 00:25:20;;;;;;;1.33;1.00;;;;;;;9.94;62.75;98650.75;6217168;23;20503;-78
2022/05/17 00:27:46;;;;;;;3.25;1.00;;;;;;;9.95;62.93;98652.44;6191516;23;20020;-78
2022/05/17 00:30:13;;;;;;;1.00;0.90;;;;;;;9.89;62.92;98637.00;6216987;23;20012;-79
2022/05/17 00:32:40;;;;;;;1.77;0.95;;;;;;;9.83;63.30;98625.91;6242646;23;20016;-79
2022/05/17 00:35:08;;;;;;;1.25;0.98;;;;;;;9.70;63.01;98607.19;6193312;23;20012;-79
2022/05/17 00:37:37;;;;;;;1.02;0.88;;;;;;;9.85;63.22;98631.94;6219945;23;20046;-79
2022/05/17 00:40:06;;;;;;;1.80;0.80;;;;;;;9.82;63.21;98635.44;6254727;23;20461;-79
2022/05/17 00:42:32;;;;;;;0.90;0.90;;;;;;;9.81;63.36;98625.97;6220089;23;20035;-79
2022/05/17 00:44:58;;;;;;;1.20;1.00;;;;;;;9.77;63.48;98619.97;6195370;23;20028;-80
2022/05/17 00:47:30;;;;;;;0.98;0.88;;;;;;;9.61;63.72;98595.25;6220970;23;20023;-79
2022/05/17 00:50:06;;;;;;;1.00;0.90;;;;;;;9.79;63.87;98623.38;6197681;23;20016;-78
2022/05/17 00:52:42;;;;;;;1.10;0.80;;;;;;;9.78;63.74;98615.66;6223122;23;20103;-79
2022/05/17 00:55:17;;;;;;;1.02;0.98;;;;;;;9.70;64.13;98602.84;6250078;23;20023;-79
2022/05/17 00:57:51;;;;;;;1.23;1.05;;;;;;;9.84;63.91;98614.63;6224088;23;20042;-78
2022/05/17 01:00:19;;;;;;;1.00;0.90;;;;;;;9.75;63.87;98600.97;6205441;23;20023;-79
2022/05/17 01:03:06;;;;;;;0.90;0.90;;;;;;;9.74;63.97;98601.03;6234786;23;20012;-80
2022/05/17 01:05:37;;;;;;;0.80;0.80;;;;;;;9.70;64.21;98602.84;6271340;22;20020;-79
2022/05/17 01:08:03;;;;;;;0.97;0.80;;;;;;;9.67;64.33;98597.72;6205859;23;20365;-79
2022/05/17 01:10:30;;;;;;;0.70;0.70;;;;;;;9.69;64.45;98603.75;6246859;23;20585;-80
2022/05/17 01:15:44;;;;;;;1.45;0.80;;;;;;;9.77;64.50;98613.94;6245456;23;20322;-80
2022/05/17 01:18:10;;;;;;;1.00;0.77;;;;;;;9.76;64.74;98610.47;6244232;23;20356;-79
2022/05/17 01:20:37;;;;;;;1.13;0.80;;;;;;;9.60;64.45;98580.56;6223903;23;20027;-79
2022/05/17 01:23:04;;;;;;;0.95;0.80;;;;;;;9.72;64.77;98614.03;6246354;23;20020;-79
2022/05/17 01:25:30;;;;;;;1.85;0.90;;;;;;;9.73;64.95;98612.31;6220127;23;20095;-80
2022/05/17 01:28:05;;;;;;;0.82;0.70;;;;;;;9.64;64.86;98606.44;6219360;23;20016;-78
2022/05/17 01:30:33;;;;;;;2.25;0.90;;;;;;;9.65;65.15;98602.09;6246093;23;20016;-80
2022/05/17 01:32:59;;;;;;;1.98;0.90;;;;;;;9.67;65.29;98609.84;6224644;23;20016;-78
2022/05/17 01:35:25;;;;;;;1.00;0.90;;;;;;;9.55;65.49;98596.28;6200122;23;20040;-78
2022/05/17 01:37:56;;;;;;;1.30;1.10;;;;;;;9.58;65.60;98598.81;6144749;23;20798;-79
2022/05/17 01:40:25;;;;;;;1.75;1.10;;;;;;;9.58;65.65;98605.72;6217166;23;20046;-79
2022/05/17 01:42:52;;;;;;;1.50;0.93;;;;;;;9.53;65.63;98603.25;6192232;23;20025;-79
2022/05/17 01:45:18;;;;;;;2.13;0.90;;;;;;;9.46;65.86;98605.13;6217593;23;20027;-78
2022/05/17 01:47:44;;;;;;;2.10;1.10;;;;;;;9.31;66.22;98577.78;6246691;23;20074;-80
2022/05/17 01:50:10;;;;;;;1.67;1.00;;;;;;;9.46;66.39;98601.66;6219397;23;20020;-78
2022/05/17 01:52:39;;;;;;;0.98;0.80;;;;;;;9.39;66.24;98595.78;6253549;23;20076;-79
2022/05/17 01:55:06;;;;;;;1.45;1.10;;;;;;;9.22;66.74;98561.56;6179328;23;20043;-78
2022/05/17 01:57:32;;;;;;;1.77;1.20;;;;;;;9.48;66.85;98597.31;6218389;23;20079;-80
2022/05/17 01:59:58;;;;;;;1.10;1.00;;;;;;;9.30;66.83;98563.09;6217947;23;20448;-78
2022/05/17 02:02:24;;;;;;;1.75;1.08;;;;;;;9.48;66.73;98597.31;6191889;23;20016;-79
2022/05/17 02:04:51;;;;;;;1.67;1.20;;;;;;;9.49;67.02;98592.06;6217517;23;20020;-79
2022/05/17 02:07:17;;;;;;;2.38;1.08;;;;;;;9.52;67.30;98591.16;6246395;23;20545;-79
2022/05/17 02:09:43;;;;;;;2.92;1.10;;;;;;;9.43;67.27;98592.22;6224727;23;20016;-79
2022/05/17 02:12:10;;;;;;;1.70;1.00;;;;;;;9.33;67.42;98563.03;6244706;23;20015;-80
2022/05/17 02:14:36;;;;;;;1.35;1.00;;;;;;;9.43;67.79;98575.78;6191489;23;20054;-80
2022/05/17 02:17:02;;;;;;;3.10;1.00;;;;;;;9.51;67.61;98594.63;6217356;23;20020;-77
2022/05/17 02:19:32;;;;;;;2.20;0.88;;;;;;;9.47;67.57;98588.66;6219226;23;20024;-80
2022/05/17 02:21:59;;;;;;;1.30;0.88;;;;;;;9.44;67.83;98585.28;6243992;23;20274;-78
2022/05/17 02:24:27;;;;;;;0.85;0.85;;;;;;;9.44;67.91;98578.34;6243394;23;20012;-79
2022/05/17 02:26:58;;;;;;;2.67;1.10;;;;;;;9.32;68.05;98550.94;6216855;23;20019;-79
2022/05/17 02:29:29;;;;;;;1.30;1.08;;;;;;;9.47;67.95;98572.22;6242986;23;20016;-80
2022/05/17 02:31:59;;;;;;;1.35;1.10;;;;;;;9.33;67.99;98544.00;6216664;23;20016;-79
2022/05/17 02:34:25;;;;;;;1.10;1.00;;;;;;;9.47;67.92;98567.91;6192034;23;20064;-79
2022/05/17 02:36:51;;;;;;;1.83;1.00;;;;;;;9.51;68.17;98568.66;6192675;23;20016;-78
2022/05/17 02:39:17;;;;;;;1.15;1.05;;;;;;;9.41;68.19;98546.41;6191891;23;20165;-77
2022/05/17 02:41:43;;;;;;;1.92;1.00;;;;;;;9.58;68.41;98570.22;6191756;23;20085;-81
2022/05/17 02:44:10;;;;;;;1.10;0.95;;;;;;;9.64;68.44;98558.84;6244170;23;20016;-79
2022/05/17 02:46:47;;;;;;;1.00;0.90;;;;;;;9.43;68.17;98513.47;6245139;23;20020;-78
2022/05/17 02:49:13;;;;;;;2.42;1.20;;;;;;;9.78;68.37;98566.28;6198393;23;20020;-79
2022/05/17 02:51:40;;;;;;;2.75;1.10;;;;;;;9.71;68.57;98541.34;6244198;23;20119;-79
2022/05/17 02:54:07;;;;;;;1.27;1.17;;;;;;;9.81;68.36;98548.03;6191775;23;20069;-79
2022/05/17 02:56:37;;;;;;;1.40;1.00;;;;;;;9.86;68.75;98533.16;6216611;23;20477;-79
2022/05/17 02:59:04;;;;;;;1.88;1.13;;;;;;;9.99;68.47;98544.06;6216628;23;20024;-77
2022/05/17 03:01:30;;;;;;;1.20;1.00;;;;;;;10.05;68.07;98541.31;6217026;23;20073;-81
2022/05/17 03:04:00;;;;;;;1.08;0.93;;;;;;;9.87;68.13;98514.06;6192032;23;20464;-78
2022/05/17 03:06:29;;;;;;;1.00;0.90;;;;;;;10.07;67.79;98536.06;6191849;23;20081;-82
2022/05/17 03:08:58;;;;;;;1.10;1.00;;;;;;;9.80;67.67;98497.78;6167912;23;20065;-81
2022/05/17 03:11:24;;;;;;;1.00;0.90;;;;;;;10.28;67.50;98567.56;6216499;23;20040;-80
2022/05/17 03:13:50;;;;;;;0.90;0.90;;;;;;;10.12;67.83;98543.75;6217306;23;20477;-79
2022/05/17 03:16:16;;;;;;;1.63;1.05;;;;;;;10.15;67.85;98539.31;6217711;23;20019;-79
2022/05/17 03:18:42;;;;;;;1.65;1.10;;;;;;;10.37;67.39;98575.97;6167556;23;20469;-80
2022/05/17 03:21:09;;;;;;;1.10;1.00;;;;;;;10.36;67.64;98570.81;6192424;23;20020;-80
2022/05/17 03:23:35;;;;;;;1.65;1.10;;;;;;;10.37;67.29;98572.53;6192605;23;20024;-79
2022/05/17 03:26:02;;;;;;;1.10;1.00;;;;;;;10.26;67.48;98549.44;6193070;23;20070;-78
2022/05/17 03:28:28;;;;;;;1.20;0.90;;;;;;;10.35;67.29;98567.38;6222675;23;20067;-78
2022/05/17 03:30:54;;;;;;;1.45;1.23;;;;;;;10.26;67.10;98557.22;6216421;23;20123;-79
2022/05/17 03:33:20;;;;;;;1.42;0.98;;;;;;;10.27;67.69;98545.94;6216720;23;20066;-78
2022/05/17 03:35:46;;;;;;;0.95;0.95;;;;;;;10.44;67.27;98573.25;6217156;23;20023;-80
2022/05/17 03:38:14;;;;;;;1.27;0.90;;;;;;;10.44;67.34;98568.03;6192705;23;20357;-78
2022/05/17 03:40:39;;;;;;;1.33;1.00;;;;;;;10.32;67.40;98559.66;6217440;23;20103;-80
2022/05/17 03:43:05;;;;;;;1.10;1.00;;;;;;;10.33;67.32;98566.56;6192430;23;20106;-81
2022/05/17 03:45:32;;;;;;;1.23;1.00;;;;;;;10.39;67.09;98574.22;6219334;23;20020;-79
2022/05/17 03:47:57;;;;;;;1.10;0.98;;;;;;;10.42;67.03;98570.69;6216604;23;20019;-79
2022/05/17 03:50:23;;;;;;;1.60;1.05;;;;;;;10.27;66.77;98561.53;6215688;23;20111;-79
2022/05/17 03:52:49;;;;;;;1.00;0.80;;;;;;;10.17;67.14;98547.06;6192402;23;20016;-81
2022/05/17 03:55:16;;;;;;;1.30;1.00;;;;;;;10.05;67.28;98530.91;6223057;23;20019;-80
2022/05/17 03:57:42;;;;;;;0.85;0.85;;;;;;;10.20;66.80;98563.44;6200129;23;20038;-80
2022/05/17 04:00:10;;;;;;;0.85;0.85;;;;;;;10.20;67.24;98566.06;6224457;23;20293;-81
2022/05/17 04:02:40;;;;;;;2.50;1.25;;;;;;;9.97;67.30;98525.06;6246776;23;20016;-84
2022/05/17 04:05:09;;;;;;;1.40;1.00;;;;;;;10.19;66.86;98559.16;6219553;23;20016;-81
2022/05/17 04:07:43;;;;;;;1.60;1.00;;;;;;;9.90;67.46;98502.75;6201288;23;20047;-82
2022/05/17 04:10:11;;;;;;;2.75;1.20;;;;;;;10.37;67.40;98568.16;6226074;23;20044;-81
2022/05/17 04:12:37;;;;;;;1.33;1.10;;;;;;;10.43;67.63;98566.34;6258712;22;20020;-81
2022/05/17 04:15:06;;;;;;;1.90;0.90;;;;;;;10.24;67.22;98548.63;6232421;23;20026;-81
2022/05/17 04:17:32;;;;;;;1.38;1.00;;;;;;;9.82;67.55;98479.56;6173489;23;20469;-82
2022/05/17 04:19:59;;;;;;;3.55;0.90;;;;;;;9.84;67.67;98482.13;6217051;23;20074;-82
2022/05/17 04:22:25;;;;;;;1.30;1.20;;;;;;;10.02;67.05;98510.22;6191688;23;20020;-83
2022/05/17 04:24:58;;;;;;;1.10;1.00;;;;;;;10.43;67.45;98563.72;6215776;23;20449;-83
2022/05/17 04:27:26;;;;;;;1.92;1.00;;;;;;;10.35;67.15;98556.13;6194500;23;20016;-85
2022/05/17 04:29:52;;;;;;;1.10;0.93;;;;;;;10.58;67.35;98565.91;6194351;23;20016;-83
2022/05/17 04:32:19;;;;;;;1.23;0.90;;;;;;;10.28;67.04;98519.03;6244702;23;20576;-81
2022/05/17 04:34:45;;;;;;;1.48;1.00;;;;;;;10.18;67.12;98482.06;6246301;23;20016;-83
2022/05/17 04:37:11;;;;;;;1.48;1.10;;;;;;;10.28;67.52;98502.56;6247969;23;20413;-80
2022/05/17 04:39:38;;;;;;;1.38;0.90;;;;;;;10.40;67.12;98512.66;6201561;23;20027;-80
2022/05/17 04:42:07;;;;;;;1.35;1.10;;;;;;;10.42;67.13;98526.50;6232253;23;20039;-80
2022/05/17 04:44:42;;;;;;;1.08;0.95;;;;;;;10.45;67.60;98552.41;6206748;23;20385;-82
2022/05/17 04:47:11;;;;;;;1.35;1.08;;;;;;;10.47;67.29;98558.41;6226024;23;20046;-81
2022/05/17 04:49:37;;;;;;;1.25;0.90;;;;;;;10.39;67.34;98543.00;6222300;23;20361;-80
2022/05/17 04:52:04;;;;;;;1.33;0.90;;;;;;;10.47;67.15;98563.63;6248710;23;20020;-80
2022/05/17 04:54:35;;;;;;;1.88;1.08;;;;;;;10.36;67.46;98557.81;6218901;23;20031;-80
2022/05/17 04:57:01;;;;;;;1.40;1.00;;;;;;;10.55;67.50;98564.25;6218059;23;20070;-83
2022/05/17 04:59:27;;;;;;;1.02;0.90;;;;;;;9.98;67.54;98466.16;6193596;23;20023;-79
2022/05/17 05:01:53;;;;;;;1.13;0.95;;;;;;;9.89;67.21;98449.91;6221623;23;20016;-82
2022/05/17 05:04:19;;;;;;;1.83;1.20;;;;;;;9.91;67.61;98458.53;6170243;23;20016;-82
2022/05/17 05:06:45;;;;;;;2.38;1.00;;;;;;;10.42;67.29;98523.88;6215631;23;20047;-82
2022/05/17 05:09:11;;;;;;;1.35;1.05;;;;;;;10.50;67.29;98534.91;6219998;23;20031;-81
2022/05/17 05:11:38;;;;;;;1.23;1.00;;;;;;;10.65;67.55;98548.38;6226537;23;20020;-82
2022/05/17 05:14:05;;;;;;;2.45;1.20;;;;;;;10.71;67.38;98550.78;6219444;23;20020;-81
2022/05/17 05:16:37;;;;;;;1.55;1.10;;;;;;;10.70;67.28;98557.75;6247904;23;20086;-81
2022/05/17 05:19:06;;;;;;;1.40;1.00;;;;;;;10.79;67.20;98558.38;6226141;23;20016;-80
2022/05/17 05:21:32;;;;;;;1.30;1.17;;;;;;;10.79;67.03;98563.59;6253548;23;20016;-82
2022/05/17 05:24:00;;;;;;;2.47;1.20;;;;;;;10.75;67.12;98549.78;6171450;23;20177;-82
2022/05/17 05:26:26;;;;;;;1.10;1.00;;;;;;;10.71;67.03;98550.78;6194639;23;20023;-83
2022/05/17 05:28:52;;;;;;;1.73;1.00;;;;;;;10.85;67.75;98572.06;6194485;23;20062;-79
2022/05/17 05:31:18;;;;;;;1.15;1.05;;;;;;;10.76;67.48;98541.09;6194174;23;20016;-81
2022/05/17 05:33:44;;;;;;;1.75;1.30;;;;;;;10.68;67.00;98532.69;6199179;23;20403;-84
2022/05/17 05:36:11;;;;;;;1.20;1.00;;;;;;;10.93;67.46;98569.22;6223637;23;20733;-81
2022/05/17 05:38:37;;;;;;;1.88;1.20;;;;;;;10.71;67.37;98535.16;6196560;23;20046;-82
2022/05/17 05:41:03;;;;;;;2.38;1.00;;;;;;;10.86;67.48;98552.06;6202613;23;20012;-81
2022/05/17 05:43:32;;;;;;;2.28;1.20;;;;;;;10.34;67.71;98472.06;6202142;23;20020;-82
2022/05/17 05:45:58;;;;;;;1.20;1.10;;;;;;;11.04;67.59;98576.72;6195338;23;20019;-85
2022/05/17 05:48:24;;;;;;;1.27;1.08;;;;;;;11.06;67.72;98587.94;6223714;23;20074;-83
2022/05/17 05:50:55;;;;;;;1.27;1.10;;;;;;;11.05;66.82;98587.97;6195411;23;20016;-82
2022/05/17 05:53:25;;;;;;;;;;;;;;;11.05;67.55;98583.63;6221471;23;20016;-81
2022/05/17 05:56:02;;;;;;;1.70;1.05;;;;;;;11.07;66.90;98578.34;6224512;23;19911;-85
2022/05/17 05:58:46;;;;;;;1.65;1.15;;;;;;;10.43;67.56;98481.38;6223755;23;20020;-83
2022/05/17 06:01:19;;;;;;;1.42;1.27;;;;;;;10.64;67.57;98513.69;6225581;23;20019;-84
2022/05/17 06:06:44;;;;;;;2.05;1.25;;;;;;;11.18;67.79;98554.59;6247592;23;20016;-84
2022/05/17 06:10:05;;;;;;;3.47;1.23;;;;;;;11.11;67.76;98541.78;6213130;23;20043;-82
2022/05/17 06:12:51;;;;;;;1.23;1.13;;;;;;;11.07;67.76;98510.69;6217212;22;20069;-82
2022/05/17 06:15:28;;;;;;;1.35;1.02;;;;;;;11.58;68.01;98592.44;6244074;23;20484;-80
2022/05/17 06:18:16;;;;;;;1.52;1.35;;;;;;;11.39;67.71;98555.69;6199912;23;20094;-82
2022/05/17 06:20:51;;;;;;;1.23;1.10;;;;;;;11.53;67.88;98569.09;6248675;23;20445;-81
2022/05/17 06:23:26;;;;;;;1.38;1.27;;;;;;;11.42;67.43;98542.56;6221159;23;20044;-81
2022/05/17 06:26:03;;;;;;;1.30;1.20;;;;;;;11.07;67.75;98488.13;6248458;23;20051;-83
2022/05/17 06:29:07;;;;;;;1.52;1.05;;;;;;;11.75;67.43;98589.25;6206217;23;20016;-83
2022/05/17 06:31:40;;;;;;;2.78;1.20;;;;;;;11.51;67.71;98538.81;6231464;23;20012;-84
2022/05/17 06:38:12;;;;;;;1.27;1.17;;;;;;;12.00;67.01;98594.53;6201744;23;20039;-80
2022/05/17 06:41:53;;;;;;;29.42;16.60;;;;;;;11.98;66.92;98570.25;6156726;23;20013;-81
2022/05/17 06:44:29;;;;;;;27.50;17.30;;;;;;;11.36;66.46;98488.94;6139245;23;20021;-86
2022/05/17 06:47:06;;;;;;;5.22;2.33;;;;;;;11.98;66.51;98595.44;6224783;23;20020;-82
2022/05/17 06:49:39;;;;;;;12.57;6.82;;;;;;;11.32;66.17;98482.13;6226341;23;20457;-83
2022/05/17 06:52:11;;;;;;;10.27;6.15;;;;;;;11.72;66.53;98568.50;6252319;23;20016;-82
2022/05/17 06:54:40;;;;;;;10.40;5.20;;;;;;;11.96;66.26;98605.94;6235007;23;20023;-83
2022/05/17 06:57:23;;;;;;;4.40;3.08;;;;;;;11.39;66.12;98499.22;6218151;22;20127;-84
2022/05/17 06:59:52;;;;;;;2.53;1.70;;;;;;;12.05;66.43;98612.63;6219800;22;20043;-84
2022/05/17 07:03:14;;;;;;;2.72;1.60;;;;;;;11.98;65.87;98600.66;6244069;23;20051;-87
2022/05/17 07:05:47;;;;;;;4.25;1.98;;;;;;;11.47;65.22;98537.19;6153881;23;20002;-86
2022/05/17 07:08:26;;;;;;;;;;;;;;;;;;;;;
2022/05/17 07:13:52;;;;;;;2.55;2.17;;;;;;;11.72;65.83;98611.06;6223791;23;20365;-79
2022/05/17 07:16:30;;;;;;;13.07;8.82;;;;;;;11.59;66.06;98596.69;6195392;23;20024;-82
2022/05/17 07:19:04;;;;;;;3.25;2.92;;;;;;;11.41;66.55;98578.16;6218741;23;20335;-82
2022/05/17 07:21:38;;;;;;;10.98;7.63;;;;;;;11.35;65.84;98551.47;6220457;23;20366;-84
2022/05/17 07:24:10;;;;;;;15.95;10.52;;;;;;;11.42;65.96;98559.03;6220295;23;20046;-80
2022/05/17 07:26:40;;;;;;;9.35;5.20;;;;;;;11.59;66.25;98581.06;6222062;23;20039;-81
2022/05/17 07:29:30;;;;;;;14.13;8.98;;;;;;;11.73;66.32;98609.28;6225374;23;20012;-80
2022/05/17 07:32:00;;;;;;;13.05;8.60;;;;;;;11.44;65.70;98545.97;6212152;23;20020;-79
2022/05/17 07:34:47;;;;;;;9.05;6.53;;;;;;;11.85;65.84;98608.03;6218217;23;20434;-80
2022/05/17 07:37:17;;;;;;;21.27;13.55;;;;;;;11.78;65.95;98598.75;6199235;23;20015;-78
2022/05/17 07:39:43;;;;;;;5.60;4.45;;;;;;;11.73;66.07;98565.84;6199086;23;20030;-78
2022/05/17 07:42:13;;;;;;;16.92;12.07;;;;;;;12.14;65.92;98622.72;6200221;23;20019;-79
2022/05/17 07:44:39;;;;;;;16.27;11.40;;;;;;;12.05;65.66;98608.25;6256436;23;20026;-79
2022/05/17 07:47:06;;;;;;;3.75;3.03;;;;;;;11.96;65.72;98579.88;6229997;23;20020;-81
2022/05/17 07:49:38;;;;;;;4.60;3.78;;;;;;;11.97;65.25;98605.03;6226691;23;20020;-80
2022/05/17 07:52:06;;;;;;;5.28;3.60;;;;;;;11.96;65.33;98605.06;6224500;23;20027;-78
2022/05/17 07:54:37;;;;;;;4.22;2.88;;;;;;;11.98;65.15;98605.88;6224622;23;20016;-79
2022/05/17 07:57:11;;;;;;;6.45;4.43;;;;;;;12.17;65.22;98630.44;6225198;23;20016;-79
2022/05/17 07:59:43;;;;;;;6.40;4.75;;;;;;;12.16;65.24;98620.91;6202275;23;20047;-79
2022/05/17 08:02:09;;;;;;;6.10;4.78;;;;;;;12.27;65.16;98632.75;6198166;23;20016;-78
2022/05/17 08:04:38;;;;;;;9.60;6.35;;;;;;;12.25;65.05;98630.19;6223443;23;20433;-80
2022/05/17 08:07:04;;;;;;;4.35;3.30;;;;;;;12.22;64.48;98619.00;6221211;23;20016;-79
2022/05/17 08:09:36;;;;;;;5.78;4.32;;;;;;;12.29;64.90;98625.72;6196804;23;20020;-78
2022/05/17 08:12:09;;;;;;;4.80;4.20;;;;;;;12.02;64.73;98584.06;6247727;23;20089;-79
2022/05/17 08:14:37;;;;;;;5.60;4.30;;;;;;;12.29;64.66;98610.91;6245834;22;20476;-79
2022/05/17 08:17:07;;;;;;;4.60;3.92;;;;;;;12.42;64.58;98613.13;6246019;23;20016;-78
2022/05/17 08:19:36;;;;;;;7.07;4.53;;;;;;;12.58;64.76;98622.09;6243701;23;20027;-80
2022/05/17 08:22:06;;;;;;;6.45;4.20;;;;;;;12.80;64.36;98603.03;6192614;23;20027;-80
2022/05/17 08:27:36;;;;;;;4.57;3.35;;;;;;;14.83;63.72;98580.88;6221231;23;20097;-80
2022/05/17 08:30:07;;;;;;;4.80;3.55;;;;;;;16.21;62.28;98613.63;6221284;23;20290;-79
2022/05/17 08:35:18;;;;;;;4.25;3.63;;;;;;;16.75;58.20;98595.06;6248033;23;20077;-81
2022/05/17 08:37:44;;;;;;;4.05;3.10;;;;;;;16.47;57.65;98588.63;6198549;23;20016;-80
2022/05/17 08:40:20;;;;;;;4.85;3.45;;;;;;;16.42;57.62;98601.19;6203601;23;20064;-81
2022/05/17 08:43:19;;;;;;;3.78;3.22;;;;;;;16.74;56.65;98622.25;6193054;23;20012;-80
2022/05/17 08:46:22;;;;;;;22.42;14.98;;;;;;;16.61;56.00;98623.84;6218953;23;20407;-79
2022/05/17 08:48:52;;;;;;;15.65;11.18;;;;;;;16.16;55.34;98624.34;6216909;23;20534;-80
2022/05/17 08:51:31;;;;;;;5.68;3.42;;;;;;;15.46;55.21;98606.72;6194744;23;20016;-80
2022/05/17 08:53:58;;;;;;;17.00;10.55;;;;;;;15.21;55.84;98635.88;6200878;23;20726;-79
2022/05/17 08:56:40;;;;;;;10.98;8.05;;;;;;;14.75;56.52;98623.13;6221985;23;20023;-82
2022/05/17 08:59:11;;;;;;;22.77;14.20;;;;;;;14.52;56.95;98604.00;6224022;23;20019;-80
2022/05/17 09:02:09;;;;;;;29.65;20.85;;;;;;;14.64;57.07;98626.19;6201856;23;20077;-80
2022/05/17 09:04:35;;;;;;;7.70;5.93;;;;;;;14.55;57.35;98643.16;6234532;23;20081;-79
2022/05/17 09:07:13;;;;;;;5.40;4.28;;;;;;;14.41;56.77;98629.78;6204502;23;20023;-80
2022/05/17 09:10:07;;;;;;;6.80;4.70;;;;;;;14.06;57.35;98630.38;6256928;23;20016;-81
2022/05/17 09:12:48;;;;;;;10.93;7.55;;;;;;;13.65;57.65;98599.81;6225755;22;20084;-82
2022/05/17 09:15:16;;;;;;;10.35;7.05;;;;;;;13.53;58.49;98601.16;6225143;23;20016;-80
2022/05/17 09:18:09;;;;;;;10.77;7.97;;;;;;;13.54;58.74;98607.22;6181112;23;20026;-79
2022/05/17 09:20:42;;;;;;;10.77;7.68;;;;;;;13.24;58.78;98579.59;6221919;23;20020;-80
2022/05/17 09:23:20;;;;;;;7.05;4.97;;;;;;;13.14;59.14;98566.97;6230364;23;20023;-79
2022/05/17 09:26:06;;;;;;;;;;;;;;;13.52;59.27;98622.97;6205555;23;20024;-80
2022/05/17 09:29:14;;;;;;;7.75;5.40;;;;;;;13.54;59.58;98636.84;6227404;23;19922;-80
2022/05/17 09:31:54;;;;;;;5.57;4.20;;;;;;;13.54;59.30;98641.19;6206359;23;20146;-78
2022/05/17 09:34:32;;;;;;;6.30;4.55;;;;;;;13.25;59.10;98591.75;6231420;23;20026;-80
2022/05/17 09:37:12;;;;;;;8.60;5.35;;;;;;;13.36;59.53;98620.06;6234581;23;20027;-82
2022/05/17 09:39:39;;;;;;;7.07;4.70;;;;;;;13.50;59.32;98644.81;6254592;23;20107;-80
2022/05/17 09:42:18;;;;;;;6.32;4.50;;;;;;;13.33;59.82;98606.28;6255351;23;20016;-80
2022/05/17 09:44:52;;;;;;;;;;;;;;;13.66;59.37;98632.88;6229950;23;20020;-80
2022/05/17 09:47:29;;;;;;;11.77;8.60;;;;;;;13.55;59.08;98625.47;6226671;23;20455;-78
2022/05/17 09:52:45;;;;;;;11.18;7.25;;;;;;;13.43;59.43;98598.97;6229161;23;20565;-80
2022/05/17 09:55:37;;;;;;;15.52;11.15;;;;;;;13.66;58.75;98645.06;6172762;23;20445;-83
2022/05/17 09:58:27;;;;;;;23.85;15.63;;;;;;;12.95;59.69;98545.03;6199760;23;20055;-81
2022/05/17 10:00:54;;;;;;;7.40;5.43;;;;;;;13.51;59.40;98643.91;6177533;23;20019;-84
2022/05/17 10:03:31;;;;;;;6.35;4.50;;;;;;;13.49;59.56;98662.28;6229938;23;20020;-80
2022/05/17 10:07:01;;;;;;;;;;;;;;;;;;;;;
2022/05/17 10:09:28;;;;;;;5.90;5.00;;;;;;;13.37;59.77;98653.13;6220259;23;20067;-81
2022/05/17 10:12:02;;;;;;;9.90;6.20;;;;;;;12.76;60.04;98557.06;6219727;23;20019;-78
2022/05/17 10:14:39;;;;;;;5.72;5.00;;;;;;;12.60;60.16;98554.19;6196647;23;20020;-80
2022/05/17 10:17:49;;;;;;;7.32;6.35;;;;;;;13.02;60.21;98625.75;6199217;23;20016;-78
2022/05/17 10:20:29;;;;;;;6.68;5.68;;;;;;;13.32;60.00;98664.66;6163147;23;20026;-78
2022/05/17 10:23:25;;;;;;;12.48;9.20;;;;;;;12.55;60.69;98536.09;6170892;23;20093;-78
2022/05/17 10:26:25;;;;;;;6.78;5.90;;;;;;;12.98;60.09;98551.03;6153013;23;20032;-79
2022/05/17 10:29:07;;;;;;;9.27;7.20;;;;;;;13.71;59.91;98659.66;6192542;23;20021;-80
2022/05/17 10:32:01;;;;;;;11.20;8.55;;;;;;;13.71;60.17;98637.91;6188721;23;20072;-79
2022/05/17 10:34:58;;;;;;;12.13;10.30;;;;;;;13.94;59.97;98657.88;6189320;23;20027;-80
2022/05/17 10:37:36;;;;;;;14.65;9.55;;;;;;;13.97;59.82;98655.16;6188274;23;20052;-81
2022/05/17 10:40:58;;;;;;;9.63;6.68;;;;;;;13.63;59.11;98629.50;6186913;23;20416;-79
2022/05/17 10:43:35;;;;;;;8.27;6.43;;;;;;;13.62;58.76;98662.66;6192339;23;20041;-79
2022/05/17 10:46:13;;;;;;;8.20;6.85;;;;;;;13.59;59.74;98672.38;6186806;23;20017;-79
2022/05/17 10:49:31;;;;;;;6.75;5.60;;;;;;;13.07;59.13;98626.41;6181172;23;20017;-78
2022/05/17 10:52:09;;;;;;;9.40;6.65;;;;;;;13.38;59.75;98672.25;6194248;23;20017;-80
2022/05/17 10:55:07;;;;;;;;;;;;;;;;;;;;;
2022/05/17 10:57:36;;;;;;;7.03;5.80;;;;;;;13.27;59.85;98675.28;6163943;23;20012;-77
2022/05/17 11:00:58;;;;;;;9.60;6.25;;;;;;;12.91;60.03;98613.91;6160859;23;20071;-80
2022/05/17 11:04:57;;;;;;;8.02;5.75;;;;;;;13.31;60.20;98671.63;6102657;23;20068;-81
2022/05/17 11:08:19;;;;;;;6.50;5.60;;;;;;;13.38;60.27;98677.47;6163911;23;20020;-79
2022/05/17 11:11:14;;;;;;;9.35;6.57;;;;;;;13.37;60.17;98681.00;6187272;23;20125;-81
2022/05/17 11:14:00;;;;;;;24.67;14.00;;;;;;;13.18;60.39;98684.31;6161796;23;20025;-79
2022/05/17 11:17:16;;;;;;;26.05;17.42;;;;;;;13.07;60.13;98689.94;6137701;23;20115;-80
2022/05/17 11:20:04;;;;;;;;;;;;;;;;;;;;;
2022/05/17 11:23:24;;;;;;;10.50;8.25;;;;;;;12.77;60.82;98690.16;6189911;23;20487;-80
2022/05/17 11:26:40;;;;;;;11.82;6.55;;;;;;;12.45;60.86;98652.16;6224381;23;20019;-79
2022/05/17 11:29:27;;;;;;;7.28;6.13;;;;;;;12.54;60.61;98687.50;6228262;23;20015;-79
2022/05/17 11:32:02;;;;;;;10.13;6.60;;;;;;;12.51;61.86;98657.13;6250049;23;20020;-80
2022/05/17 11:34:28;;;;;;;7.32;5.57;;;;;;;12.86;61.86;98695.94;6230353;23;20111;-79
2022/05/17 11:37:33;;;;;;;8.60;6.32;;;;;;;12.95;61.20;98686.00;6227301;23;20077;-79
2022/05/17 11:40:47;;;;;;;7.50;6.00;;;;;;;12.98;61.29;98692.91;6223792;23;20016;-80
2022/05/17 11:43:49;;;;;;;8.00;5.75;;;;;;;12.59;60.77;98634.22;6224334;23;20031;-80
2022/05/17 11:46:24;;;;;;;7.85;5.68;;;;;;;12.93;61.21;98700.03;6196357;23;20016;-79
2022/05/17 11:49:14;;;;;;;7.18;6.05;;;;;;;12.90;61.61;98703.63;6224005;23;20083;-79
2022/05/17 11:52:10;;;;;;;6.88;5.68;;;;;;;12.94;61.70;98712.19;6180148;23;20013;-80
2022/05/17 11:54:48;;;;;;;10.82;6.28;;;;;;;12.17;61.32;98590.50;6218582;23;20020;-80
2022/05/17 11:57:20;;;;;;;7.80;5.60;;;;;;;12.92;61.23;98719.22;6193199;23;20040;-79
2022/05/17 12:00:05;;;;;;;9.07;5.68;;;;;;;12.87;61.00;98729.84;6193989;23;20415;-81
2022/05/17 12:02:54;;;;;;;9.20;5.72;;;;;;;12.41;61.67;98646.16;6228685;23;20016;-82
2022/05/17 12:05:44;;;;;;;5.90;5.28;;;;;;;12.90;61.24;98724.50;6249856;23;20026;-80
2022/05/17 12:08:44;;;;;;;9.15;5.55;;;;;;;12.78;61.73;98724.94;6205417;23;20015;-79
2022/05/17 12:11:48;;;;;;;7.88;5.68;;;;;;;12.48;61.83;98676.34;6230700;23;20020;-79
2022/05/17 12:14:42;;;;;;;6.47;5.40;;;;;;;12.82;61.67;98726.53;6222943;23;20019;-79
2022/05/17 12:17:30;;;;;;;6.90;5.50;;;;;;;12.13;61.45;98621.06;6230013;23;20027;-78
2022/05/17 12:20:10;;;;;;;6.30;5.50;;;;;;;12.23;60.65;98641.59;6229069;23;20024;-78
2022/05/17 12:22:52;;;;;;;;;;;;;;;12.77;61.58;98725.84;6200241;23;20376;-80
2022/05/17 12:25:26;;;;;;;8.65;5.78;;;;;;;12.73;61.83;98722.50;6203413;23;19922;-79
2022/05/17 12:27:55;;;;;;;7.90;5.25;;;;;;;12.50;61.30;98685.00;6228842;23;20022;-79
2022/05/17 12:30:54;;;;;;;6.88;5.18;;;;;;;12.08;61.76;98607.31;6213743;23;20020;-82
2022/05/17 12:33:23;;;;;;;8.18;5.18;;;;;;;12.75;61.67;98719.81;6226368;23;20054;-78
2022/05/17 12:36:38;;;;;;;12.75;5.57;;;;;;;12.03;61.73;98610.06;6202844;23;20016;-78
2022/05/17 12:45:03;;;;;;;8.30;5.85;;;;;;;12.73;61.53;98711.19;6227090;23;20019;-81